Time,TemperatureF,DewpointF,PressureIn,WindDirection,WindDirectionDegrees,WindSpeedMPH,WindSpeedGustMPH,Humidity,HourlyPrecipIn,Conditions,Clouds,dailyrainin,SoftwareType,DateUTC
2013-02-26 00:02:00,33.1,30.8,29.63,North,0,0.0,0.0,91,0.00,,,0.00,WUHU216HW,2013-02-26 06:02:00,
2013-02-26 00:07:00,33.1,30.8,29.62,North,0,0.0,0.0,91,0.00,,,0.00,WUHU216HW,2013-02-26 06:07:00,
2013-02-26 00:12:00,33.3,31.0,29.61,North,0,0.0,0.0,91,0.00,,,0.00,WUHU216HW,2013-02-26 06:12:00,
2013-02-26 00:17:00,33.3,31.0,29.62,North,0,0.0,0.0,91,0.00,,,0.00,WUHU216HW,2013-02-26 06:17:00,
2013-02-26 00:22:00,33.5,31.1,29.62,North,0,0.0,0.0,91,0.00,,,0.00,WUHU216HW,2013-02-26 06:22:00,
2013-02-26 00:28:00,33.5,31.1,29.63,North,0,0.0,0.0,91,0.00,,,0.00,WUHU216HW,2013-02-26 06:28:00,
2013-02-26 00:33:00,33.5,31.1,29.63,North,0,0.0,0.0,91,0.00,,,0.00,WUHU216HW,2013-02-26 06:33:00,
2013-02-26 00:38:00,33.3,31.0,29.63,North,0,0.0,0.0,91,0.00,,,0.00,WUHU216HW,2013-02-26 06:38:00,
2013-02-26 00:43:00,33.1,30.8,29.62,North,0,0.0,0.0,91,0.00,,,0.00,WUHU216HW,2013-02-26 06:43:00,
2013-02-26 00:48:00,33.1,30.8,29.61,North,0,0.0,0.0,91,0.00,,,0.00,WUHU216HW,2013-02-26 06:48:00,
2013-02-26 00:53:00,33.1,30.8,29.61,North,0,0.0,0.0,91,0.00,,,0.00,WUHU216HW,2013-02-26 06:53:00,
2013-02-26 00:58:00,32.9,30.6,29.60,North,0,0.0,0.0,91,0.00,,,0.00,WUHU216HW,2013-02-26 06:58:00,
2013-02-26 01:03:00,32.9,30.6,29.60,North,0,0.0,0.0,91,0.00,,,0.00,WUHU216HW,2013-02-26 07:03:00,
2013-02-26 01:09:00,32.8,30.7,29.60,North,0,0.0,0.0,92,0.00,,,0.00,WUHU216HW,2013-02-26 07:09:00,
2013-02-26 01:14:00,32.8,30.7,29.60,North,0,0.0,0.0,92,0.00,,,0.00,WUHU216HW,2013-02-26 07:14:00,
2013-02-26 01:19:00,32.8,30.7,29.60,North,0,0.0,0.0,92,0.00,,,0.00,WUHU216HW,2013-02-26 07:19:00,
2013-02-26 01:24:00,32.8,30.7,29.60,North,0,0.0,0.0,92,0.00,,,0.00,WUHU216HW,2013-02-26 07:24:00,
2013-02-26 01:29:00,32.8,30.7,29.60,North,0,0.0,0.0,92,0.00,,,0.00,WUHU216HW,2013-02-26 07:29:00,
2013-02-26 01:34:00,32.8,30.7,29.60,North,0,0.0,0.0,92,0.00,,,0.00,WUHU216HW,2013-02-26 07:34:00,
2013-02-26 01:39:00,32.8,30.7,29.60,North,0,0.0,0.0,92,0.00,,,0.00,WUHU216HW,2013-02-26 07:39:00,
2013-02-26 01:44:00,32.8,30.7,29.60,North,0,0.0,0.0,92,0.00,,,0.00,WUHU216HW,2013-02-26 07:44:00,
2013-02-26 01:50:00,32.8,30.7,29.59,North,0,0.0,0.0,92,0.00,,,0.00,WUHU216HW,2013-02-26 07:50:00,
2013-02-26 01:55:00,32.8,30.7,29.59,North,0,0.0,0.0,92,0.00,,,0.00,WUHU216HW,2013-02-26 07:55:00,
2013-02-26 02:00:00,32.8,30.4,29.59,North,0,0.0,0.0,91,0.00,,,0.00,WUHU216HW,2013-02-26 08:00:00,
2013-02-26 02:05:00,32.8,30.7,29.59,North,0,0.0,0.0,92,0.00,,,0.00,WUHU216HW,2013-02-26 08:05:00,
2013-02-26 02:10:00,32.8,30.7,29.59,North,0,0.0,0.0,92,0.00,,,0.00,WUHU216HW,2013-02-26 08:10:00,
2013-02-26 02:15:00,32.6,30.5,29.58,North,0,0.0,0.0,92,0.00,,,0.00,WUHU216HW,2013-02-26 08:15:00,
2013-02-26 02:20:00,32.6,30.5,29.57,North,0,0.0,0.0,92,0.00,,,0.00,WUHU216HW,2013-02-26 08:20:00,
2013-02-26 02:25:00,32.6,30.5,29.57,North,0,0.0,0.0,92,0.00,,,0.00,WUHU216HW,2013-02-26 08:25:00,
2013-02-26 02:30:00,32.6,30.5,29.57,North,0,0.0,0.0,92,0.00,,,0.00,WUHU216HW,2013-02-26 08:30:00,
2013-02-26 02:36:00,32.8,30.7,29.57,North,0,0.0,0.0,92,0.00,,,0.00,WUHU216HW,2013-02-26 08:36:00,
2013-02-26 02:41:00,32.6,30.5,29.57,North,0,0.0,0.0,92,0.00,,,0.00,WUHU216HW,2013-02-26 08:41:00,
2013-02-26 02:46:00,32.8,31.0,29.57,North,0,0.0,0.0,93,0.00,,,0.00,WUHU216HW,2013-02-26 08:46:00,
2013-02-26 02:51:00,32.8,31.0,29.57,North,0,0.0,0.0,93,0.00,,,0.00,WUHU216HW,2013-02-26 08:51:00,
2013-02-26 02:56:00,32.8,31.0,29.57,North,0,0.0,0.0,93,0.00,,,0.00,WUHU216HW,2013-02-26 08:56:00,
2013-02-26 03:01:00,32.8,31.0,29.57,North,0,0.0,0.0,93,0.00,,,0.00,WUHU216HW,2013-02-26 09:01:00,
2013-02-26 03:06:00,32.8,31.0,29.56,North,0,0.0,0.0,93,0.00,,,0.00,WUHU216HW,2013-02-26 09:06:00,
2013-02-26 03:11:00,32.6,30.5,29.57,North,0,0.0,0.0,92,0.00,,,0.00,WUHU216HW,2013-02-26 09:11:00,
2013-02-26 03:17:00,32.6,30.8,29.56,North,0,0.0,0.0,93,0.00,,,0.00,WUHU216HW,2013-02-26 09:17:00,
2013-02-26 03:22:00,32.6,30.5,29.56,North,0,0.0,0.0,92,0.00,,,0.00,WUHU216HW,2013-02-26 09:22:00,
2013-02-26 03:27:00,32.6,30.5,29.57,North,0,0.0,0.0,92,0.00,,,0.00,WUHU216HW,2013-02-26 09:27:00,
2013-02-26 03:32:00,32.6,30.5,29.56,North,0,0.0,0.0,92,0.00,,,0.00,WUHU216HW,2013-02-26 09:32:00,
2013-02-26 03:37:00,32.4,30.6,29.56,North,0,0.0,0.0,93,0.00,,,0.00,WUHU216HW,2013-02-26 09:37:00,
2013-02-26 03:42:00,32.4,30.3,29.57,North,0,0.0,0.0,92,0.00,,,0.00,WUHU216HW,2013-02-26 09:42:00,
2013-02-26 03:47:00,32.4,30.3,29.56,North,0,0.0,0.0,92,0.00,,,0.00,WUHU216HW,2013-02-26 09:47:00,
2013-02-26 03:52:00,32.4,30.3,29.56,North,0,0.0,0.0,92,0.00,,,0.00,WUHU216HW,2013-02-26 09:52:00,
2013-02-26 03:57:00,32.4,30.3,29.56,North,0,0.0,0.0,92,0.00,,,0.00,WUHU216HW,2013-02-26 09:57:00,
2013-02-26 04:03:00,32.4,30.3,29.56,North,0,0.0,0.0,92,0.00,,,0.00,WUHU216HW,2013-02-26 10:03:00,
2013-02-26 04:08:00,32.4,30.3,29.56,North,0,0.0,0.0,92,0.00,,,0.00,WUHU216HW,2013-02-26 10:08:00,
2013-02-26 04:13:00,32.6,30.5,29.55,North,0,0.0,0.0,92,0.00,,,0.00,WUHU216HW,2013-02-26 10:13:00,
2013-02-26 04:18:00,32.6,30.5,29.55,North,0,0.0,0.0,92,0.00,,,0.00,WUHU216HW,2013-02-26 10:18:00,
2013-02-26 04:23:00,32.4,30.6,29.55,North,0,0.0,0.0,93,0.00,,,0.00,WUHU216HW,2013-02-26 10:23:00,
2013-02-26 04:28:00,32.4,30.6,29.55,North,0,0.0,0.0,93,0.00,,,0.00,WUHU216HW,2013-02-26 10:28:00,
2013-02-26 04:33:00,32.4,30.3,29.55,North,0,0.0,0.0,92,0.00,,,0.00,WUHU216HW,2013-02-26 10:33:00,
2013-02-26 04:38:00,32.4,30.3,29.55,North,0,0.0,0.0,92,0.00,,,0.00,WUHU216HW,2013-02-26 10:38:00,
2013-02-26 04:44:00,32.4,30.3,29.55,North,0,0.0,0.0,92,0.00,,,0.00,WUHU216HW,2013-02-26 10:44:00,
2013-02-26 04:49:00,32.4,30.3,29.54,North,0,0.0,0.0,92,0.00,,,0.00,WUHU216HW,2013-02-26 10:49:00,
2013-02-26 04:54:00,32.4,30.3,29.54,North,0,0.0,0.0,92,0.00,,,0.00,WUHU216HW,2013-02-26 10:54:00,
2013-02-26 04:59:00,32.2,30.2,29.54,North,0,0.0,0.0,92,0.00,,,0.00,WUHU216HW,2013-02-26 10:59:00,
2013-02-26 05:04:00,32.2,30.2,29.54,North,0,0.0,0.0,92,0.00,,,0.00,WUHU216HW,2013-02-26 11:04:00,
2013-02-26 05:09:00,32.2,30.4,29.54,North,0,0.0,0.0,93,0.00,,,0.00,WUHU216HW,2013-02-26 11:09:00,
2013-02-26 05:14:00,32.2,30.4,29.54,North,0,0.0,0.0,93,0.00,,,0.00,WUHU216HW,2013-02-26 11:14:00,
2013-02-26 05:19:00,32.4,30.6,29.54,North,0,0.0,0.0,93,0.00,,,0.00,WUHU216HW,2013-02-26 11:19:00,
2013-02-26 05:24:00,32.4,30.6,29.54,North,0,0.0,0.0,93,0.00,,,0.00,WUHU216HW,2013-02-26 11:24:00,
2013-02-26 05:30:00,32.4,30.6,29.54,North,0,0.0,0.0,93,0.00,,,0.00,WUHU216HW,2013-02-26 11:30:00,
2013-02-26 05:35:00,32.6,30.8,29.54,North,0,0.0,0.0,93,0.00,,,0.00,WUHU216HW,2013-02-26 11:35:00,
2013-02-26 05:40:00,32.4,30.6,29.54,North,0,0.0,0.0,93,0.00,,,0.00,WUHU216HW,2013-02-26 11:40:00,
2013-02-26 05:45:00,32.4,30.6,29.54,North,0,0.0,0.0,93,0.00,,,0.00,WUHU216HW,2013-02-26 11:45:00,
2013-02-26 05:50:00,32.2,30.4,29.55,North,0,0.0,0.0,93,0.00,,,0.00,WUHU216HW,2013-02-26 11:50:00,
2013-02-26 05:55:00,32.2,30.4,29.55,North,0,0.0,0.0,93,0.00,,,0.00,WUHU216HW,2013-02-26 11:55:00,
2013-02-26 06:00:00,32.2,30.4,29.55,North,0,0.0,0.0,93,0.00,,,0.00,WUHU216HW,2013-02-26 12:00:00,
2013-02-26 06:05:00,32.2,30.4,29.55,North,0,0.0,0.0,93,0.00,,,0.00,WUHU216HW,2013-02-26 12:05:00,
2013-02-26 06:10:00,32.2,30.4,29.55,North,0,0.0,0.0,93,0.00,,,0.00,WUHU216HW,2013-02-26 12:10:00,
2013-02-26 06:15:00,32.2,30.4,29.55,North,0,0.0,0.0,93,0.00,,,0.00,WUHU216HW,2013-02-26 12:15:00,
2013-02-26 06:21:00,32.2,30.4,29.55,North,0,0.0,0.0,93,0.00,,,0.00,WUHU216HW,2013-02-26 12:21:00,
2013-02-26 06:26:00,32.0,30.2,29.55,North,0,0.0,0.0,93,0.00,,,0.00,WUHU216HW,2013-02-26 12:26:00,
2013-02-26 06:31:00,32.0,30.2,29.55,North,0,0.0,0.0,93,0.00,,,0.00,WUHU216HW,2013-02-26 12:31:00,
2013-02-26 06:36:00,32.2,30.4,29.55,North,0,0.0,0.0,93,0.00,,,0.00,WUHU216HW,2013-02-26 12:36:00,
2013-02-26 06:41:00,32.2,30.4,29.56,North,0,0.0,0.0,93,0.00,,,0.00,WUHU216HW,2013-02-26 12:41:00,
2013-02-26 06:46:00,32.4,30.6,29.55,North,0,0.0,0.0,93,0.00,,,0.00,WUHU216HW,2013-02-26 12:46:00,
2013-02-26 06:51:00,32.4,30.6,29.55,North,0,0.0,0.0,93,0.00,,,0.00,WUHU216HW,2013-02-26 12:51:00,
2013-02-26 06:56:00,32.2,30.4,29.55,North,0,0.0,0.0,93,0.00,,,0.00,WUHU216HW,2013-02-26 12:56:00,
2013-02-26 07:01:00,32.0,30.2,29.55,North,0,0.0,0.0,93,0.00,,,0.00,WUHU216HW,2013-02-26 13:01:00,
2013-02-26 07:06:00,32.0,30.2,29.55,North,0,0.0,0.0,93,0.00,,,0.00,WUHU216HW,2013-02-26 13:06:00,
2013-02-26 07:11:00,32.0,30.2,29.55,North,0,0.0,0.0,93,0.00,,,0.00,WUHU216HW,2013-02-26 13:11:00,
2013-02-26 07:17:00,32.0,30.2,29.55,North,0,0.0,0.0,93,0.00,,,0.00,WUHU216HW,2013-02-26 13:17:00,
2013-02-26 07:22:00,32.0,30.2,29.55,North,0,0.0,0.0,93,0.00,,,0.00,WUHU216HW,2013-02-26 13:22:00,
2013-02-26 07:27:00,32.0,30.2,29.55,North,0,0.0,0.0,93,0.00,,,0.00,WUHU216HW,2013-02-26 13:27:00,
2013-02-26 07:32:00,32.0,30.2,29.55,North,0,0.0,0.0,93,0.00,,,0.00,WUHU216HW,2013-02-26 13:32:00,
2013-02-26 07:37:00,32.2,30.4,29.55,North,0,0.0,0.0,93,0.00,,,0.00,WUHU216HW,2013-02-26 13:37:00,
2013-02-26 07:42:00,32.0,30.2,29.55,North,0,0.0,0.0,93,0.00,,,0.00,WUHU216HW,2013-02-26 13:42:00,
2013-02-26 07:47:00,32.2,30.4,29.55,North,0,0.0,0.0,93,0.00,,,0.00,WUHU216HW,2013-02-26 13:47:00,
2013-02-26 07:52:00,32.2,30.4,29.55,North,0,0.0,0.0,93,0.00,,,0.00,WUHU216HW,2013-02-26 13:52:00,
2013-02-26 07:58:00,32.4,30.6,29.55,North,0,0.0,0.0,93,0.00,,,0.00,WUHU216HW,2013-02-26 13:58:00,
2013-02-26 08:03:00,32.6,30.5,29.55,North,0,0.0,0.0,92,0.00,,,0.00,WUHU216HW,2013-02-26 14:03:00,
2013-02-26 08:08:00,32.4,30.3,29.55,North,0,0.0,0.0,92,0.00,,,0.00,WUHU216HW,2013-02-26 14:08:00,
2013-02-26 08:13:00,32.2,30.2,29.55,North,0,0.0,0.0,92,0.00,,,0.00,WUHU216HW,2013-02-26 14:13:00,
2013-02-26 08:18:00,32.2,30.2,29.55,North,0,0.0,0.0,92,0.00,,,0.00,WUHU216HW,2013-02-26 14:18:00,
2013-02-26 08:23:00,32.2,30.4,29.55,North,0,0.0,0.0,93,0.00,,,0.00,WUHU216HW,2013-02-26 14:23:00,
2013-02-26 08:28:00,32.4,30.3,29.55,North,0,0.0,0.0,92,0.00,,,0.00,WUHU216HW,2013-02-26 14:28:00,
2013-02-26 08:33:00,32.4,30.3,29.56,North,0,0.0,0.0,92,0.00,,,0.00,WUHU216HW,2013-02-26 14:33:00,
2013-02-26 08:38:00,32.4,30.3,29.56,North,0,0.0,0.0,92,0.00,,,0.00,WUHU216HW,2013-02-26 14:38:00,
2013-02-26 08:43:00,32.4,30.3,29.56,North,0,0.0,0.0,92,0.00,,,0.00,WUHU216HW,2013-02-26 14:43:00,
2013-02-26 08:48:00,32.4,30.3,29.55,North,0,0.0,0.0,92,0.00,,,0.00,WUHU216HW,2013-02-26 14:48:00,
2013-02-26 08:53:00,32.6,30.5,29.56,North,0,0.0,0.0,92,0.00,,,0.00,WUHU216HW,2013-02-26 14:53:00,
2013-02-26 08:58:00,32.4,30.3,29.56,North,0,0.0,0.0,92,0.00,,,0.00,WUHU216HW,2013-02-26 14:58:00,
2013-02-26 09:04:00,32.4,30.3,29.56,North,0,0.0,0.0,92,0.00,,,0.00,WUHU216HW,2013-02-26 15:04:00,
2013-02-26 09:09:00,32.6,30.8,29.56,North,0,0.0,0.0,93,0.00,,,0.00,WUHU216HW,2013-02-26 15:09:00,
2013-02-26 09:14:00,32.8,30.7,29.56,North,0,0.0,0.0,92,0.00,,,0.00,WUHU216HW,2013-02-26 15:14:00,
2013-02-26 09:19:00,32.9,30.9,29.56,North,0,0.0,0.0,92,0.00,,,0.00,WUHU216HW,2013-02-26 15:19:00,
2013-02-26 09:24:00,32.9,30.9,29.56,North,0,0.0,0.0,92,0.00,,,0.00,WUHU216HW,2013-02-26 15:24:00,
2013-02-26 09:29:00,32.8,30.7,29.56,North,0,0.0,0.0,92,0.00,,,0.00,WUHU216HW,2013-02-26 15:29:00,
2013-02-26 09:34:00,32.8,30.7,29.57,North,0,0.0,0.0,92,0.00,,,0.00,WUHU216HW,2013-02-26 15:34:00,
2013-02-26 09:39:00,32.8,30.7,29.57,North,0,0.0,0.0,92,0.00,,,0.00,WUHU216HW,2013-02-26 15:39:00,
2013-02-26 09:44:00,32.9,30.9,29.57,North,0,0.0,0.0,92,0.00,,,0.00,WUHU216HW,2013-02-26 15:44:00,
2013-02-26 09:49:00,33.1,31.1,29.57,North,0,0.0,0.0,92,0.00,,,0.00,WUHU216HW,2013-02-26 15:49:00,
2013-02-26 09:54:00,33.5,31.3,29.57,North,0,0.0,0.0,92,0.00,,,0.00,WUHU216HW,2013-02-26 15:54:00,
2013-02-26 09:59:00,33.3,31.1,29.57,North,0,0.0,0.0,92,0.00,,,0.00,WUHU216HW,2013-02-26 15:59:00,
2013-02-26 10:04:00,33.1,31.1,29.57,North,0,0.0,0.0,92,0.00,,,0.00,WUHU216HW,2013-02-26 16:04:00,
2013-02-26 10:10:00,33.1,31.1,29.57,North,0,0.0,0.0,92,0.00,,,0.00,WUHU216HW,2013-02-26 16:10:00,
2013-02-26 10:15:00,33.1,31.1,29.57,North,0,0.0,0.0,92,0.00,,,0.00,WUHU216HW,2013-02-26 16:15:00,
2013-02-26 10:20:00,33.1,31.1,29.58,North,0,0.0,0.0,92,0.00,,,0.00,WUHU216HW,2013-02-26 16:20:00,
2013-02-26 10:25:00,33.5,31.3,29.58,North,0,0.0,0.0,92,0.00,,,0.00,WUHU216HW,2013-02-26 16:25:00,
2013-02-26 10:30:00,33.5,31.3,29.58,North,0,0.0,0.0,92,0.00,,,0.00,WUHU216HW,2013-02-26 16:30:00,
2013-02-26 10:35:00,33.5,31.3,29.58,North,0,0.0,0.0,92,0.00,,,0.00,WUHU216HW,2013-02-26 16:35:00,
2013-02-26 10:40:00,33.5,31.3,29.58,North,0,0.0,0.0,92,0.00,,,0.00,WUHU216HW,2013-02-26 16:40:00,
2013-02-26 10:45:00,33.5,31.3,29.58,North,0,0.0,0.0,92,0.00,,,0.00,WUHU216HW,2013-02-26 16:45:00,
2013-02-26 10:50:00,33.3,31.0,29.58,North,0,0.0,0.0,91,0.00,,,0.00,WUHU216HW,2013-02-26 16:50:00,
2013-02-26 10:55:00,33.5,31.1,29.59,North,0,0.0,0.0,91,0.00,,,0.00,WUHU216HW,2013-02-26 16:55:00,
2013-02-26 11:00:00,33.5,31.1,29.58,North,0,0.0,0.0,91,0.00,,,0.00,WUHU216HW,2013-02-26 17:00:00,
2013-02-26 11:05:00,33.5,31.1,29.58,North,0,0.0,0.0,91,0.00,,,0.00,WUHU216HW,2013-02-26 17:05:00,
2013-02-26 11:10:00,33.5,30.8,29.58,North,0,0.0,0.0,90,0.00,,,0.00,WUHU216HW,2013-02-26 17:10:00,
2013-02-26 11:15:00,33.5,30.8,29.59,North,0,0.0,0.0,90,0.00,,,0.00,WUHU216HW,2013-02-26 17:15:00,
2013-02-26 11:20:00,33.5,30.8,29.59,North,0,0.0,0.0,90,0.00,,,0.00,WUHU216HW,2013-02-26 17:20:00,
2013-02-26 11:25:00,33.5,30.8,29.59,North,0,0.0,0.0,90,0.00,,,0.00,WUHU216HW,2013-02-26 17:25:00,
2013-02-26 11:30:00,33.7,31.0,29.59,North,0,0.0,0.0,90,0.00,,,0.00,WUHU216HW,2013-02-26 17:30:00,
2013-02-26 11:35:00,33.5,30.5,29.59,North,0,0.0,0.0,89,0.00,,,0.00,WUHU216HW,2013-02-26 17:35:00,
2013-02-26 11:40:00,33.5,30.8,29.60,North,0,0.0,0.0,90,0.00,,,0.00,WUHU216HW,2013-02-26 17:40:00,
2013-02-26 11:46:00,33.7,30.7,29.60,North,0,0.0,0.0,89,0.00,,,0.00,WUHU216HW,2013-02-26 17:46:00,
2013-02-26 11:51:00,33.5,30.5,29.60,North,0,0.0,0.0,89,0.00,,,0.00,WUHU216HW,2013-02-26 17:51:00,
2013-02-26 11:56:00,33.5,30.5,29.61,North,0,0.0,0.0,89,0.00,,,0.00,WUHU216HW,2013-02-26 17:56:00,
2013-02-26 12:01:00,33.5,30.5,29.61,North,0,0.0,0.0,89,0.00,,,0.00,WUHU216HW,2013-02-26 18:01:00,
2013-02-26 12:06:00,33.3,30.3,29.61,North,0,0.0,0.0,89,0.00,,,0.00,WUHU216HW,2013-02-26 18:06:00,
2013-02-26 12:11:00,33.3,30.3,29.61,North,0,0.0,0.0,89,0.00,,,0.00,WUHU216HW,2013-02-26 18:11:00,
2013-02-26 12:16:00,33.3,30.3,29.61,North,0,0.0,0.0,89,0.00,,,0.00,WUHU216HW,2013-02-26 18:16:00,
2013-02-26 12:21:00,33.3,30.3,29.61,North,0,0.0,0.0,89,0.00,,,0.00,WUHU216HW,2013-02-26 18:21:00,
2013-02-26 12:26:00,33.3,30.3,29.62,North,0,0.0,0.0,89,0.00,,,0.00,WUHU216HW,2013-02-26 18:26:00,
2013-02-26 12:31:00,33.5,30.5,29.62,North,0,0.0,0.0,89,0.00,,,0.00,WUHU216HW,2013-02-26 18:31:00,
2013-02-26 12:36:00,33.3,30.3,29.62,North,0,0.0,0.0,89,0.00,,,0.00,WUHU216HW,2013-02-26 18:36:00,
2013-02-26 12:41:00,33.3,30.3,29.62,North,0,0.0,0.0,89,0.00,,,0.00,WUHU216HW,2013-02-26 18:41:00,
2013-02-26 12:46:00,33.5,30.5,29.61,North,0,0.0,0.0,89,0.00,,,0.00,WUHU216HW,2013-02-26 18:46:00,
2013-02-26 12:52:00,33.5,30.5,29.61,North,0,0.0,0.0,89,0.00,,,0.00,WUHU216HW,2013-02-26 18:52:00,
2013-02-26 12:57:00,33.5,30.5,29.61,North,0,0.0,0.0,89,0.00,,,0.00,WUHU216HW,2013-02-26 18:57:00,
2013-02-26 13:02:00,33.5,30.5,29.61,North,0,0.0,0.0,89,0.00,,,0.00,WUHU216HW,2013-02-26 19:02:00,
2013-02-26 13:07:00,33.7,30.7,29.61,North,0,0.0,0.0,89,0.00,,,0.00,WUHU216HW,2013-02-26 19:07:00,
2013-02-26 13:12:00,33.7,30.7,29.61,North,0,0.0,0.0,89,0.00,,,0.00,WUHU216HW,2013-02-26 19:12:00,
2013-02-26 13:17:00,33.7,30.7,29.61,North,0,0.0,0.0,89,0.00,,,0.00,WUHU216HW,2013-02-26 19:17:00,
2013-02-26 13:22:00,33.8,30.9,29.61,North,0,0.0,0.0,89,0.00,,,0.00,WUHU216HW,2013-02-26 19:22:00,
2013-02-26 13:27:00,34.0,31.1,29.61,North,0,0.0,0.0,89,0.00,,,0.00,WUHU216HW,2013-02-26 19:27:00,
2013-02-26 13:32:00,34.2,31.2,29.61,North,0,0.0,0.0,89,0.00,,,0.00,WUHU216HW,2013-02-26 19:32:00,
2013-02-26 13:37:00,34.2,31.2,29.61,North,0,0.0,0.0,89,0.00,,,0.00,WUHU216HW,2013-02-26 19:37:00,
2013-02-26 13:42:00,34.2,31.2,29.61,North,0,0.0,0.0,89,0.00,,,0.00,WUHU216HW,2013-02-26 19:42:00,
2013-02-26 13:47:00,34.2,31.2,29.60,North,0,0.0,0.0,89,0.00,,,0.00,WUHU216HW,2013-02-26 19:47:00,
2013-02-26 13:53:00,34.2,31.2,29.61,North,0,0.0,0.0,89,0.00,,,0.00,WUHU216HW,2013-02-26 19:53:00,
2013-02-26 13:58:00,34.2,31.2,29.61,North,0,0.0,0.0,89,0.00,,,0.00,WUHU216HW,2013-02-26 19:58:00,
2013-02-26 14:03:00,34.2,31.2,29.61,North,0,0.0,0.0,89,0.00,,,0.00,WUHU216HW,2013-02-26 20:03:00,
2013-02-26 14:08:00,34.2,31.2,29.61,North,0,0.0,0.0,89,0.00,,,0.00,WUHU216HW,2013-02-26 20:08:00,
2013-02-26 14:13:00,34.2,31.0,29.61,North,0,0.0,0.0,88,0.00,,,0.00,WUHU216HW,2013-02-26 20:13:00,
2013-02-26 14:18:00,34.2,31.0,29.62,North,0,0.0,0.0,88,0.00,,,0.00,WUHU216HW,2013-02-26 20:18:00,
2013-02-26 14:23:00,34.2,31.0,29.61,North,0,0.0,0.0,88,0.00,,,0.00,WUHU216HW,2013-02-26 20:23:00,
2013-02-26 14:28:00,34.2,31.0,29.62,North,0,0.0,0.0,88,0.00,,,0.00,WUHU216HW,2013-02-26 20:28:00,
2013-02-26 14:33:00,34.2,31.0,29.62,North,0,0.0,0.0,88,0.00,,,0.00,WUHU216HW,2013-02-26 20:33:00,
2013-02-26 14:38:00,34.2,31.0,29.62,North,0,0.0,0.0,88,0.00,,,0.00,WUHU216HW,2013-02-26 20:38:00,
2013-02-26 14:43:00,34.2,31.0,29.63,North,0,0.0,0.0,88,0.00,,,0.00,WUHU216HW,2013-02-26 20:43:00,
2013-02-26 14:48:00,34.0,30.8,29.63,North,0,0.0,0.0,88,0.00,,,0.00,WUHU216HW,2013-02-26 20:48:00,
2013-02-26 14:53:00,33.8,30.6,29.63,North,0,0.0,0.0,88,0.00,,,0.00,WUHU216HW,2013-02-26 20:53:00,
2013-02-26 14:58:00,33.8,30.6,29.62,North,0,0.0,0.0,88,0.00,,,0.00,WUHU216HW,2013-02-26 20:58:00,
2013-02-26 15:03:00,33.8,30.6,29.62,North,0,0.0,0.0,88,0.00,,,0.00,WUHU216HW,2013-02-26 21:03:00,
2013-02-26 15:08:00,33.8,30.6,29.63,North,0,0.0,0.0,88,0.00,,,0.00,WUHU216HW,2013-02-26 21:08:00,
2013-02-26 15:13:00,34.2,31.0,29.63,North,0,0.0,0.0,88,0.00,,,0.00,WUHU216HW,2013-02-26 21:13:00,
2013-02-26 15:19:00,34.2,31.0,29.63,North,0,0.0,0.0,88,0.00,,,0.00,WUHU216HW,2013-02-26 21:19:00,
2013-02-26 15:24:00,34.2,30.6,29.64,North,0,0.0,0.0,87,0.00,,,0.00,WUHU216HW,2013-02-26 21:24:00,
2013-02-26 15:29:00,34.4,30.8,29.64,North,0,0.0,0.0,87,0.00,,,0.00,WUHU216HW,2013-02-26 21:29:00,
2013-02-26 15:34:00,34.2,30.6,29.64,North,0,0.0,0.0,87,0.00,,,0.00,WUHU216HW,2013-02-26 21:34:00,
2013-02-26 15:39:00,34.4,30.5,29.65,North,0,0.0,0.0,86,0.00,,,0.00,WUHU216HW,2013-02-26 21:39:00,
2013-02-26 15:44:00,34.2,30.6,29.65,North,0,0.0,0.0,87,0.00,,,0.00,WUHU216HW,2013-02-26 21:44:00,
2013-02-26 15:49:00,34.2,30.3,29.65,North,0,0.0,0.0,86,0.00,,,0.00,WUHU216HW,2013-02-26 21:49:00,
2013-02-26 15:54:00,34.0,30.4,29.66,North,0,0.0,0.0,87,0.00,,,0.00,WUHU216HW,2013-02-26 21:54:00,
2013-02-26 15:59:00,33.8,30.2,29.66,North,0,0.0,0.0,87,0.00,,,0.00,WUHU216HW,2013-02-26 21:59:00,
2013-02-26 16:04:00,33.8,30.2,29.66,North,0,0.0,0.0,87,0.00,,,0.00,WUHU216HW,2013-02-26 22:04:00,
2013-02-26 16:10:00,33.7,30.2,29.66,North,0,0.0,0.0,87,0.00,,,0.00,WUHU216HW,2013-02-26 22:10:00,
2013-02-26 16:15:00,33.7,30.2,29.67,North,0,0.0,0.0,87,0.00,,,0.00,WUHU216HW,2013-02-26 22:15:00,
2013-02-26 16:20:00,33.7,30.4,29.67,North,0,0.0,0.0,88,0.00,,,0.00,WUHU216HW,2013-02-26 22:20:00,
2013-02-26 16:25:00,33.7,30.4,29.67,North,0,0.0,0.0,88,0.00,,,0.00,WUHU216HW,2013-02-26 22:25:00,
2013-02-26 16:30:00,33.7,30.4,29.67,North,0,0.0,0.0,88,0.00,,,0.00,WUHU216HW,2013-02-26 22:30:00,
2013-02-26 16:35:00,33.7,30.4,29.67,North,0,0.0,0.0,88,0.00,,,0.00,WUHU216HW,2013-02-26 22:35:00,
2013-02-26 16:40:00,33.7,30.7,29.68,North,0,0.0,0.0,89,0.00,,,0.00,WUHU216HW,2013-02-26 22:40:00,
2013-02-26 16:45:00,33.7,30.7,29.68,North,0,0.0,0.0,89,0.00,,,0.00,WUHU216HW,2013-02-26 22:45:00,
2013-02-26 16:50:00,33.7,30.7,29.68,North,0,0.0,0.0,89,0.00,,,0.00,WUHU216HW,2013-02-26 22:50:00,
2013-02-26 16:56:00,33.5,30.2,29.68,North,0,0.0,0.0,88,0.00,,,0.00,WUHU216HW,2013-02-26 22:56:00,
2013-02-26 17:01:00,33.5,30.2,29.68,North,0,0.0,0.0,88,0.00,,,0.00,WUHU216HW,2013-02-26 23:01:00,
2013-02-26 17:06:00,33.3,30.3,29.68,North,0,0.0,0.0,89,0.00,,,0.00,WUHU216HW,2013-02-26 23:06:00,
2013-02-26 17:11:00,33.1,30.3,29.68,North,0,0.0,0.0,89,0.00,,,0.00,WUHU216HW,2013-02-26 23:11:00,
2013-02-26 17:16:00,33.1,30.3,29.68,North,0,0.0,0.0,89,0.00,,,0.00,WUHU216HW,2013-02-26 23:16:00,
2013-02-26 17:21:00,32.9,30.1,29.69,North,0,0.0,0.0,89,0.00,,,0.00,WUHU216HW,2013-02-26 23:21:00,
2013-02-26 17:26:00,32.9,30.1,29.69,North,0,0.0,0.0,89,0.00,,,0.00,WUHU216HW,2013-02-26 23:26:00,
2013-02-26 17:31:00,32.9,30.3,29.69,North,0,0.0,0.0,90,0.00,,,0.00,WUHU216HW,2013-02-26 23:31:00,
2013-02-26 17:36:00,32.8,30.2,29.69,North,0,0.0,0.0,90,0.00,,,0.00,WUHU216HW,2013-02-26 23:36:00,
2013-02-26 17:41:00,32.8,30.2,29.69,North,0,0.0,0.0,90,0.00,,,0.00,WUHU216HW,2013-02-26 23:41:00,
2013-02-26 17:47:00,32.8,30.4,29.70,North,0,0.0,0.0,91,0.00,,,0.00,WUHU216HW,2013-02-26 23:47:00,
2013-02-26 17:52:00,32.8,30.4,29.70,North,0,0.0,0.0,91,0.00,,,0.00,WUHU216HW,2013-02-26 23:52:00,
2013-02-26 17:57:00,32.8,30.4,29.70,North,0,0.0,0.0,91,0.00,,,0.00,WUHU216HW,2013-02-26 23:57:00,
2013-02-26 18:02:00,32.8,30.4,29.70,North,0,0.0,0.0,91,0.00,,,0.00,WUHU216HW,2013-02-27 00:02:00,
2013-02-26 18:07:00,32.8,30.4,29.70,North,0,0.0,0.0,91,0.00,,,0.00,WUHU216HW,2013-02-27 00:07:00,
2013-02-26 18:12:00,32.6,30.2,29.71,North,0,0.0,0.0,91,0.00,,,0.00,WUHU216HW,2013-02-27 00:12:00,
2013-02-26 18:17:00,32.4,30.1,29.71,North,0,0.0,0.0,91,0.00,,,0.00,WUHU216HW,2013-02-27 00:17:00,
2013-02-26 18:22:00,32.4,30.1,29.71,North,0,0.0,0.0,91,0.00,,,0.00,WUHU216HW,2013-02-27 00:22:00,
2013-02-26 18:28:00,32.4,30.1,29.71,North,0,0.0,0.0,91,0.00,,,0.00,WUHU216HW,2013-02-27 00:28:00,
2013-02-26 18:33:00,32.2,30.0,29.71,North,0,0.0,0.0,91,0.00,,,0.00,WUHU216HW,2013-02-27 00:33:00,
2013-02-26 18:38:00,32.2,30.0,29.72,North,0,0.0,0.0,91,0.00,,,0.00,WUHU216HW,2013-02-27 00:38:00,
2013-02-26 18:43:00,32.2,30.0,29.72,North,0,0.0,0.0,91,0.00,,,0.00,WUHU216HW,2013-02-27 00:43:00,
2013-02-26 18:48:00,32.2,29.7,29.72,North,0,0.0,0.0,90,0.00,,,0.00,WUHU216HW,2013-02-27 00:48:00,
2013-02-26 18:53:00,32.2,29.7,29.73,North,0,0.0,0.0,90,0.00,,,0.00,WUHU216HW,2013-02-27 00:53:00,
2013-02-26 18:58:00,32.0,29.5,29.73,North,0,0.0,0.0,90,0.00,,,0.00,WUHU216HW,2013-02-27 00:58:00,
2013-02-26 19:03:00,32.0,29.5,29.73,North,0,0.0,0.0,90,0.00,,,0.00,WUHU216HW,2013-02-27 01:03:00,
2013-02-26 19:08:00,32.0,29.5,29.74,North,0,0.0,0.0,90,0.00,,,0.00,WUHU216HW,2013-02-27 01:08:00,
2013-02-26 19:13:00,32.0,29.5,29.74,North,0,0.0,0.0,90,0.00,,,0.00,WUHU216HW,2013-02-27 01:13:00,
2013-02-26 19:18:00,32.2,29.7,29.75,North,0,0.0,0.0,90,0.00,,,0.00,WUHU216HW,2013-02-27 01:18:00,
2013-02-26 19:23:00,32.2,29.7,29.74,North,0,0.0,0.0,90,0.00,,,0.00,WUHU216HW,2013-02-27 01:23:00,
2013-02-26 19:29:00,32.2,29.7,29.75,North,0,0.0,0.0,90,0.00,,,0.00,WUHU216HW,2013-02-27 01:29:00,
2013-02-26 19:34:00,32.2,29.7,29.75,North,0,0.0,0.0,90,0.00,,,0.00,WUHU216HW,2013-02-27 01:34:00,
2013-02-26 19:39:00,32.0,29.5,29.75,North,0,0.0,0.0,90,0.00,,,0.00,WUHU216HW,2013-02-27 01:39:00,
2013-02-26 19:44:00,32.0,29.5,29.75,North,0,0.0,0.0,90,0.00,,,0.00,WUHU216HW,2013-02-27 01:44:00,
2013-02-26 19:49:00,32.0,29.8,29.76,North,0,0.0,0.0,91,0.00,,,0.00,WUHU216HW,2013-02-27 01:49:00,
2013-02-26 19:54:00,32.0,29.8,29.76,North,0,0.0,0.0,91,0.00,,,0.00,WUHU216HW,2013-02-27 01:54:00,
2013-02-26 19:59:00,32.0,29.8,29.76,North,0,0.0,0.0,91,0.00,,,0.00,WUHU216HW,2013-02-27 01:59:00,
2013-02-26 20:04:00,32.0,29.8,29.77,North,0,0.0,0.0,91,0.00,,,0.00,WUHU216HW,2013-02-27 02:04:00,
2013-02-26 20:09:00,32.0,29.8,29.77,North,0,0.0,0.0,91,0.00,,,0.00,WUHU216HW,2013-02-27 02:09:00,
2013-02-26 20:14:00,32.0,29.8,29.77,North,0,0.0,0.0,91,0.00,,,0.00,WUHU216HW,2013-02-27 02:14:00,
2013-02-26 20:19:00,32.0,29.8,29.77,North,0,0.0,0.0,91,0.00,,,0.00,WUHU216HW,2013-02-27 02:19:00,
2013-02-26 20:24:00,32.0,29.8,29.78,North,0,0.0,0.0,91,0.00,,,0.00,WUHU216HW,2013-02-27 02:24:00,
2013-02-26 20:29:00,32.0,29.8,29.78,North,0,0.0,0.0,91,0.00,,,0.00,WUHU216HW,2013-02-27 02:29:00,
2013-02-26 20:35:00,32.2,30.0,29.78,North,0,0.0,0.0,91,0.00,,,0.00,WUHU216HW,2013-02-27 02:35:00,
2013-02-26 20:39:00,32.2,30.0,29.78,North,0,0.0,0.0,91,0.00,,,0.00,WUHU216HW,2013-02-27 02:39:00,
2013-02-26 20:45:00,32.2,30.0,29.79,North,0,0.0,0.0,91,0.00,,,0.00,WUHU216HW,2013-02-27 02:45:00,
2013-02-26 20:50:00,32.0,29.8,29.79,North,0,0.0,0.0,91,0.00,,,0.00,WUHU216HW,2013-02-27 02:50:00,
2013-02-26 20:55:00,32.0,29.5,29.79,North,0,0.0,0.0,90,0.00,,,0.00,WUHU216HW,2013-02-27 02:55:00,
2013-02-26 21:00:00,32.0,29.8,29.80,North,0,0.0,0.0,91,0.00,,,0.00,WUHU216HW,2013-02-27 03:00:00,
2013-02-26 21:05:00,32.0,29.8,29.80,North,0,0.0,0.0,91,0.00,,,0.00,WUHU216HW,2013-02-27 03:05:00,
2013-02-26 21:10:00,31.9,29.6,29.80,North,0,0.0,0.0,91,0.00,,,0.00,WUHU216HW,2013-02-27 03:10:00,
2013-02-26 21:15:00,31.9,29.6,29.80,North,0,0.0,0.0,91,0.00,,,0.00,WUHU216HW,2013-02-27 03:15:00,
2013-02-26 21:20:00,31.9,29.6,29.80,North,0,0.0,0.0,91,0.00,,,0.00,WUHU216HW,2013-02-27 03:20:00,
2013-02-26 21:25:00,31.9,29.6,29.81,North,0,0.0,0.0,91,0.00,,,0.00,WUHU216HW,2013-02-27 03:25:00,
2013-02-26 21:30:00,31.9,29.6,29.81,North,0,0.0,0.0,91,0.00,,,0.00,WUHU216HW,2013-02-27 03:30:00,
2013-02-26 21:35:00,31.9,29.6,29.81,North,0,0.0,0.0,91,0.00,,,0.00,WUHU216HW,2013-02-27 03:35:00,
2013-02-26 21:40:00,31.9,29.6,29.81,North,0,0.0,0.0,91,0.00,,,0.00,WUHU216HW,2013-02-27 03:40:00,
2013-02-26 21:46:00,31.9,29.6,29.82,North,0,0.0,0.0,91,0.00,,,0.00,WUHU216HW,2013-02-27 03:46:00,
2013-02-26 21:51:00,31.9,29.6,29.82,North,0,0.0,0.0,91,0.00,,,0.00,WUHU216HW,2013-02-27 03:51:00,
2013-02-26 21:56:00,31.9,29.6,29.82,North,0,0.0,0.0,91,0.00,,,0.00,WUHU216HW,2013-02-27 03:56:00,
2013-02-26 22:01:00,31.9,29.6,29.81,North,0,0.0,0.0,91,0.00,,,0.00,WUHU216HW,2013-02-27 04:01:00,
2013-02-26 22:06:00,31.7,29.4,29.82,North,0,0.0,0.0,91,0.00,,,0.00,WUHU216HW,2013-02-27 04:06:00,
2013-02-26 22:11:00,31.5,29.3,29.81,North,0,0.0,0.0,91,0.00,,,0.00,WUHU216HW,2013-02-27 04:11:00,
2013-02-26 22:16:00,31.5,29.3,29.81,North,0,0.0,0.0,91,0.00,,,0.00,WUHU216HW,2013-02-27 04:16:00,
2013-02-26 22:21:00,31.3,29.1,29.82,North,0,0.0,0.0,91,0.00,,,0.00,WUHU216HW,2013-02-27 04:21:00,
2013-02-26 22:26:00,31.3,29.1,29.81,North,0,0.0,0.0,91,0.00,,,0.00,WUHU216HW,2013-02-27 04:26:00,
2013-02-26 22:31:00,31.3,29.1,29.82,North,0,0.0,0.0,91,0.00,,,0.00,WUHU216HW,2013-02-27 04:31:00,
2013-02-26 22:36:00,31.3,29.1,29.82,North,0,0.0,0.0,91,0.00,,,0.00,WUHU216HW,2013-02-27 04:36:00,
2013-02-26 22:41:00,31.3,29.1,29.82,North,0,0.0,0.0,91,0.00,,,0.00,WUHU216HW,2013-02-27 04:41:00,
2013-02-26 22:46:00,31.3,29.1,29.82,North,0,0.0,0.0,91,0.00,,,0.00,WUHU216HW,2013-02-27 04:46:00,
2013-02-26 22:52:00,31.1,28.9,29.82,North,0,0.0,0.0,91,0.00,,,0.00,WUHU216HW,2013-02-27 04:52:00,
2013-02-26 22:57:00,31.1,28.9,29.82,North,0,0.0,0.0,91,0.00,,,0.00,WUHU216HW,2013-02-27 04:57:00,
2013-02-26 23:00:00,31.1,28.9,29.82,North,0,0.0,0.0,91,0.00,,,0.00,WUHU216HW,2013-02-27 05:00:00,
2013-02-26 23:06:00,31.3,29.1,29.82,North,0,0.0,0.0,91,0.00,,,0.00,WUHU216HW,2013-02-27 05:06:00,
2013-02-26 23:11:00,31.3,29.1,29.82,North,0,0.0,0.0,91,0.00,,,0.00,WUHU216HW,2013-02-27 05:11:00,
2013-02-26 23:16:00,31.3,29.1,29.82,North,0,0.0,0.0,91,0.00,,,0.00,WUHU216HW,2013-02-27 05:16:00,
2013-02-26 23:21:00,31.1,28.9,29.82,North,0,0.0,0.0,91,0.00,,,0.00,WUHU216HW,2013-02-27 05:21:00,
2013-02-26 23:26:00,31.0,28.7,29.82,North,0,0.0,0.0,91,0.00,,,0.00,WUHU216HW,2013-02-27 05:26:00,
2013-02-26 23:31:00,31.0,28.7,29.82,North,0,0.0,0.0,91,0.00,,,0.00,WUHU216HW,2013-02-27 05:31:00,
2013-02-26 23:36:00,31.0,28.7,29.82,North,0,0.0,0.0,91,0.00,,,0.00,WUHU216HW,2013-02-27 05:36:00,
2013-02-26 23:41:00,30.8,28.5,29.82,North,0,0.0,0.0,91,0.00,,,0.00,WUHU216HW,2013-02-27 05:41:00,
2013-02-26 23:46:00,30.8,28.5,29.82,North,0,0.0,0.0,91,0.00,,,0.00,WUHU216HW,2013-02-27 05:46:00,
2013-02-26 23:51:00,30.8,28.5,29.82,North,0,0.0,0.0,91,0.00,,,0.00,WUHU216HW,2013-02-27 05:51:00,
2013-02-26 23:56:00,30.8,28.5,29.81,North,0,0.0,0.0,91,0.00,,,0.00,WUHU216HW,2013-02-27 05:56:00,